createdAt,value
2023-06-10T00:00:37.494Z,7.90
2023-06-10T00:03:06.007Z,8.43
2023-06-10T00:05:36.395Z,7.78
2023-06-10T00:10:37.649Z,7.38
2023-06-10T00:13:06.011Z,7.85
2023-06-10T00:15:34.863Z,7.88
2023-06-10T00:18:03.517Z,7.82
2023-06-10T00:20:32.810Z,8.35
2023-06-10T00:23:02.432Z,7.95
2023-06-10T00:25:32.847Z,6.97
2023-06-10T00:32:59.095Z,7.15
2023-06-10T00:35:28.597Z,7.10
2023-06-10T00:37:56.548Z,6.72
2023-06-10T00:40:25.481Z,7.55
2023-06-10T00:42:54.855Z,7.00
2023-06-10T00:47:53.629Z,6.53
2023-06-10T00:50:21.815Z,6.82
2023-06-10T00:52:53.447Z,6.55
2023-06-10T00:55:24.480Z,6.93
2023-06-10T00:57:56.500Z,6.85
2023-06-10T01:00:24.560Z,6.25
2023-06-10T01:02:53.669Z,6.10
2023-06-10T01:05:22.900Z,6.80
2023-06-10T01:08:00.464Z,5.97
2023-06-10T01:10:35.053Z,5.80
2023-06-10T01:13:08.488Z,6.15
2023-06-10T01:15:37.678Z,6.35
2023-06-10T01:18:11.253Z,5.82
2023-06-10T01:20:41.149Z,6.22
2023-06-10T01:25:41.216Z,5.55
2023-06-10T01:28:15.474Z,6.00
2023-06-10T01:30:50.657Z,5.93
2023-06-10T01:33:26.146Z,5.65
2023-06-10T01:35:58.552Z,6.30
2023-06-10T01:38:31.891Z,6.13
2023-06-10T01:41:00.413Z,5.95
2023-06-10T01:43:28.942Z,5.88
2023-06-10T01:45:56.934Z,6.28
2023-06-10T01:48:25.892Z,5.55
2023-06-10T01:50:54.090Z,5.65
2023-06-10T01:53:23.099Z,6.32
2023-06-10T01:55:52.865Z,6.13
2023-06-10T01:58:21.362Z,5.53
2023-06-10T02:00:49.633Z,5.70
2023-06-10T02:03:18.859Z,5.55
2023-06-10T02:05:46.972Z,5.65
2023-06-10T02:08:18.173Z,6.43
2023-06-10T02:10:46.224Z,5.80
2023-06-10T02:13:16.514Z,5.55
2023-06-10T02:15:44.967Z,5.90
2023-06-10T02:18:14.700Z,6.07
2023-06-10T02:20:42.673Z,5.32
2023-06-10T02:23:11.618Z,5.88
2023-06-10T02:25:39.618Z,5.80
2023-06-10T02:28:08.141Z,6.25
2023-06-10T02:30:38.461Z,5.85
2023-06-10T02:35:35.000Z,5.85
2023-06-10T02:38:03.066Z,5.47
2023-06-10T02:40:32.344Z,5.95
2023-06-10T02:43:00.484Z,5.63
2023-06-10T02:45:31.079Z,5.85
2023-06-10T02:48:02.188Z,5.53
2023-06-10T02:50:32.308Z,5.63
2023-06-10T02:53:12.374Z,5.50
2023-06-10T02:55:45.698Z,6.00
2023-06-10T02:58:16.606Z,5.80
2023-06-10T03:00:46.694Z,6.30
2023-06-10T03:03:17.143Z,5.95
2023-06-10T03:05:55.088Z,6.00
2023-06-10T03:08:24.564Z,6.10
2023-06-10T03:10:52.685Z,5.47
2023-06-10T03:13:22.151Z,5.73
2023-06-10T03:15:51.199Z,5.93
2023-06-10T03:18:25.235Z,5.70
2023-06-10T03:20:54.358Z,5.75
2023-06-10T03:23:24.006Z,5.20
2023-06-10T03:25:53.174Z,5.82
2023-06-10T03:28:22.083Z,5.85
2023-06-10T03:30:51.243Z,6.43
2023-06-10T03:33:19.321Z,6.50
2023-06-10T03:35:49.381Z,5.80
2023-06-10T03:38:17.520Z,5.80
2023-06-10T03:40:46.203Z,5.88
2023-06-10T03:43:14.374Z,5.45
2023-06-10T03:45:43.104Z,5.60
2023-06-10T03:48:12.728Z,5.57
2023-06-10T03:50:52.305Z,5.80
2023-06-10T03:53:22.118Z,5.57
2023-06-10T03:55:51.381Z,5.18
2023-06-10T03:58:23.998Z,5.63
2023-06-10T04:00:52.054Z,6.05
2023-06-10T04:03:25.358Z,5.50
2023-06-10T04:05:55.714Z,5.67
2023-06-10T04:08:27.834Z,5.55
2023-06-10T04:10:55.982Z,5.57
2023-06-10T04:13:24.911Z,6.25
2023-06-10T04:15:56.729Z,5.55
2023-06-10T04:18:25.682Z,5.63
2023-06-10T04:20:58.215Z,5.50
2023-06-10T04:23:27.334Z,5.60
2023-06-10T04:25:55.582Z,5.05
2023-06-10T04:30:53.163Z,6.40
2023-06-10T04:33:22.178Z,6.53
2023-06-10T04:35:50.296Z,5.88
2023-06-10T04:38:22.107Z,5.75
2023-06-10T04:40:50.210Z,5.70
2023-06-10T04:43:19.994Z,5.80
2023-06-10T04:45:48.770Z,5.68
2023-06-10T04:48:17.976Z,5.80
2023-06-10T04:50:45.961Z,5.88
2023-06-10T04:53:15.768Z,5.45
2023-06-10T04:55:49.336Z,5.68
2023-06-10T04:58:18.314Z,5.68
2023-06-10T05:00:46.267Z,5.25
2023-06-10T05:03:14.884Z,5.55
2023-06-10T05:05:42.951Z,5.53
2023-06-10T05:08:11.846Z,5.30
2023-06-10T05:10:39.815Z,5.00
2023-06-10T05:13:10.164Z,5.10
2023-06-10T05:18:07.215Z,5.07
2023-06-10T05:20:35.231Z,4.97
2023-06-10T05:23:04.569Z,5.18
2023-06-10T05:25:33.637Z,5.38
2023-06-10T05:28:02.656Z,4.95
2023-06-10T05:30:32.102Z,5.05
2023-06-10T05:35:28.839Z,4.57
2023-06-10T05:37:57.338Z,4.40
2023-06-10T05:40:25.508Z,4.88
2023-06-10T05:42:53.552Z,4.70
2023-06-10T05:45:22.021Z,4.43
2023-06-10T05:47:51.973Z,4.68
2023-06-10T05:50:21.086Z,5.07
2023-06-10T05:52:49.118Z,4.55
2023-06-10T05:55:17.555Z,4.57
2023-06-10T05:57:45.522Z,4.22
2023-06-10T06:00:15.174Z,4.15
2023-06-10T06:02:43.797Z,4.20
2023-06-10T06:05:14.285Z,4.10
2023-06-10T06:07:42.550Z,4.25
2023-06-10T06:10:11.858Z,3.78
2023-06-10T06:12:40.119Z,3.70
2023-06-10T06:15:10.826Z,3.80
2023-06-10T06:17:39.220Z,3.72
2023-06-10T06:20:09.258Z,4.20
2023-06-10T06:22:38.684Z,4.00
2023-06-10T06:25:09.131Z,3.70
2023-06-10T06:27:37.730Z,3.95
2023-06-10T06:30:07.265Z,3.58
2023-06-10T06:32:35.818Z,3.90
2023-06-10T06:35:06.598Z,3.50
2023-06-10T06:37:34.905Z,3.75
2023-06-10T06:40:28.505Z,3.58
2023-06-10T06:42:56.529Z,3.63
2023-06-10T06:45:43.940Z,3.72
2023-06-10T06:48:12.083Z,3.65
2023-06-10T06:50:42.790Z,3.40
2023-06-10T06:53:10.788Z,3.28
2023-06-10T06:55:41.114Z,3.75
2023-06-10T06:58:09.218Z,3.47
2023-06-10T07:00:37.740Z,3.22
2023-06-10T07:03:05.909Z,3.08
2023-06-10T07:05:35.047Z,3.65
2023-06-10T07:08:03.132Z,3.20
2023-06-10T07:10:32.120Z,3.35
2023-06-10T07:13:01.461Z,3.50
2023-06-10T07:15:29.940Z,3.65
2023-06-10T07:17:58.040Z,3.15
2023-06-10T07:20:26.535Z,3.58
2023-06-10T07:22:54.724Z,3.35
2023-06-10T07:25:23.439Z,3.30
2023-06-10T07:27:51.632Z,3.78
2023-06-10T07:30:21.588Z,3.40
2023-06-10T07:32:49.646Z,3.40
2023-06-10T07:35:18.793Z,3.75
2023-06-10T07:37:46.877Z,3.35
2023-06-10T07:40:15.641Z,3.45
2023-06-10T07:42:44.307Z,3.70
2023-06-10T07:45:13.473Z,3.40
2023-06-10T07:47:42.951Z,3.97
2023-06-10T07:50:12.083Z,3.50
2023-06-10T07:52:41.013Z,3.72
2023-06-10T07:55:09.822Z,3.40
2023-06-10T07:57:40.076Z,3.65
2023-06-10T08:02:45.173Z,3.63
2023-06-10T08:05:13.639Z,3.40
2023-06-10T08:07:43.191Z,3.30
2023-06-10T08:12:41.177Z,3.80
2023-06-10T08:15:11.418Z,3.70
2023-06-10T08:17:40.819Z,3.63
2023-06-10T08:20:10.888Z,3.77
2023-06-10T08:22:41.003Z,3.63
2023-06-10T08:25:10.662Z,3.45
2023-06-10T08:27:38.902Z,3.50
2023-06-10T08:30:09.023Z,3.60
2023-06-10T08:32:37.528Z,3.88
2023-06-10T08:35:06.688Z,3.55
2023-06-10T08:37:37.077Z,3.33
2023-06-10T08:40:06.180Z,3.83
2023-06-10T08:42:41.215Z,3.58
2023-06-10T08:45:11.920Z,3.92
2023-06-10T08:47:44.345Z,3.38
2023-06-10T08:50:12.975Z,3.40
2023-06-10T08:55:16.257Z,3.90
2023-06-10T08:57:46.103Z,3.30
2023-06-10T09:00:15.776Z,3.70
2023-06-10T09:05:13.301Z,3.50
2023-06-10T09:07:42.026Z,3.38
2023-06-10T09:10:13.458Z,3.38
2023-06-10T09:12:42.000Z,3.30
2023-06-10T09:15:12.940Z,3.45
2023-06-10T09:17:42.603Z,3.22
2023-06-10T09:20:11.499Z,3.22
2023-06-10T09:22:40.246Z,3.53
2023-06-10T09:25:10.073Z,3.33
2023-06-10T09:27:50.984Z,3.45
2023-06-10T09:30:28.304Z,3.45
2023-06-10T09:32:58.902Z,3.30
2023-06-10T09:35:28.083Z,3.45
2023-06-10T09:37:58.128Z,3.95
2023-06-10T09:40:26.518Z,3.75
2023-06-10T09:42:58.580Z,3.22
2023-06-10T09:45:32.017Z,3.35
2023-06-10T09:48:00.386Z,3.30
2023-06-10T09:50:28.520Z,3.50
2023-06-10T09:52:56.615Z,3.60
2023-06-10T09:55:26.169Z,3.45
2023-06-10T09:57:57.445Z,3.50
2023-06-10T10:00:27.100Z,3.38
2023-06-10T10:02:55.871Z,4.05
2023-06-10T10:05:25.057Z,3.65
2023-06-10T10:07:54.276Z,3.95
2023-06-10T10:12:58.341Z,3.70
2023-06-10T10:15:33.714Z,3.65
2023-06-10T10:18:08.749Z,4.00
2023-06-10T10:20:44.250Z,4.13
2023-06-10T10:23:14.713Z,4.25
2023-06-10T10:25:45.385Z,3.63
2023-06-10T10:28:17.726Z,3.60
2023-06-10T10:30:53.670Z,3.50
2023-06-10T10:33:25.016Z,3.85
2023-06-10T10:35:55.323Z,3.83
2023-06-10T10:38:24.448Z,3.95
2023-06-10T10:40:54.156Z,3.58
2023-06-10T10:43:23.963Z,3.40
2023-06-10T10:46:01.210Z,3.70
2023-06-10T10:48:36.392Z,3.70
2023-06-10T10:51:27.026Z,3.70
2023-06-10T10:54:14.967Z,3.53
2023-06-10T10:57:13.129Z,3.80
2023-06-10T11:00:03.268Z,3.67
2023-06-10T11:02:40.724Z,3.80
2023-06-10T11:05:10.652Z,3.65
2023-06-10T11:07:39.205Z,3.35
2023-06-10T11:10:11.503Z,3.70
2023-06-10T11:12:55.371Z,3.65
2023-06-10T11:15:28.129Z,3.95
2023-06-10T11:18:15.939Z,3.72
2023-06-10T11:21:05.930Z,3.65
2023-06-10T11:23:36.903Z,3.20
2023-06-10T11:26:20.788Z,3.97
2023-06-10T11:29:10.240Z,3.17
2023-06-10T11:31:58.876Z,3.80
2023-06-10T11:34:28.333Z,3.58
2023-06-10T11:36:56.967Z,4.03
2023-06-10T11:39:27.310Z,3.60
2023-06-10T11:41:57.209Z,4.05
2023-06-10T11:44:31.070Z,4.20
2023-06-10T11:47:00.815Z,3.90
2023-06-10T11:49:29.293Z,4.05
2023-06-10T11:51:57.607Z,3.85
2023-06-10T11:54:26.590Z,3.95
2023-06-10T11:57:00.413Z,3.83
2023-06-10T11:59:30.706Z,4.00
2023-06-10T12:02:00.663Z,4.30
2023-06-10T12:04:28.682Z,4.00
2023-06-10T12:06:57.251Z,4.03
2023-06-10T12:09:27.997Z,3.83
2023-06-10T12:12:00.492Z,4.00
2023-06-10T12:15:06.985Z,3.70
2023-06-10T12:17:40.347Z,3.97
2023-06-10T12:20:11.315Z,3.80
2023-06-10T12:22:44.227Z,4.05
2023-06-10T12:25:13.938Z,4.25
2023-06-10T12:27:52.653Z,4.22
2023-06-10T12:30:22.587Z,4.10
2023-06-10T12:32:53.442Z,3.78
2023-06-10T12:35:23.455Z,3.90
2023-06-10T12:37:58.997Z,4.15
2023-06-10T12:40:31.279Z,5.72
2023-06-10T12:42:59.634Z,4.53
2023-06-10T12:45:32.247Z,4.72
2023-06-10T12:48:10.094Z,4.20
2023-06-10T12:50:40.626Z,3.60
2023-06-10T12:53:09.844Z,4.35
2023-06-10T12:55:38.334Z,3.90
2023-06-10T12:58:06.577Z,3.15
2023-06-10T13:00:36.275Z,3.67
2023-06-10T13:03:06.961Z,3.65
2023-06-10T13:05:38.544Z,3.60
2023-06-10T13:08:07.516Z,4.20
2023-06-10T13:13:06.804Z,4.07
2023-06-10T13:15:39.436Z,3.60
2023-06-10T13:18:10.011Z,3.55
2023-06-10T13:20:39.573Z,3.97
2023-06-10T13:23:07.661Z,3.90
2023-06-10T13:25:36.663Z,4.05
2023-06-10T13:28:04.768Z,3.22
2023-06-10T13:30:33.260Z,3.93
2023-06-10T13:33:01.798Z,3.67
2023-06-10T13:35:29.984Z,3.85
2023-06-10T13:37:59.865Z,3.83
2023-06-10T13:40:28.054Z,3.78
2023-06-10T13:42:56.797Z,3.70
2023-06-10T13:45:25.857Z,4.32
2023-06-10T13:47:54.802Z,4.22
2023-06-10T13:52:50.936Z,3.92
2023-06-10T13:55:21.406Z,4.28
2023-06-10T13:57:49.808Z,3.88
2023-06-10T14:00:18.775Z,4.00
2023-06-10T14:02:47.827Z,4.00
2023-06-10T14:05:16.046Z,4.07
2023-06-10T14:07:44.119Z,4.32
2023-06-10T14:10:12.571Z,3.78
2023-06-10T14:12:43.557Z,3.83
2023-06-10T14:15:12.657Z,3.85
2023-06-10T14:17:41.479Z,3.70
2023-06-10T14:20:10.453Z,4.40
2023-06-10T14:22:39.478Z,4.28
2023-06-10T14:25:08.906Z,3.97
2023-06-10T14:27:37.772Z,4.50
2023-06-10T14:30:08.635Z,3.83
2023-06-10T14:32:37.541Z,4.00
2023-06-10T14:35:06.302Z,4.25
2023-06-10T14:37:35.442Z,4.22
2023-06-10T14:42:33.604Z,4.32
2023-06-10T14:45:02.329Z,4.45
2023-06-10T14:47:32.375Z,4.15
2023-06-10T14:50:00.553Z,4.05
2023-06-10T14:52:29.133Z,4.15
2023-06-10T14:54:58.224Z,4.38
2023-06-10T14:57:26.925Z,4.22
2023-06-10T14:59:54.922Z,4.32
2023-06-10T15:02:23.776Z,4.25
2023-06-10T15:04:53.246Z,5.10
2023-06-10T15:07:21.646Z,4.82
2023-06-10T15:09:49.695Z,4.15
2023-06-10T15:12:18.197Z,4.10
2023-06-10T15:14:46.185Z,4.88
2023-06-10T15:17:14.616Z,4.35
2023-06-10T15:19:43.073Z,4.30
2023-06-10T15:22:13.035Z,4.47
2023-06-10T15:24:41.577Z,4.38
2023-06-10T15:27:09.562Z,4.78
2023-06-10T15:29:38.118Z,4.88
2023-06-10T15:32:06.960Z,4.60
2023-06-10T15:34:35.957Z,4.18
2023-06-10T15:37:04.321Z,4.35
2023-06-10T15:39:34.806Z,4.43
2023-06-10T15:42:02.781Z,4.22
2023-06-10T15:44:31.744Z,4.32
2023-06-10T15:47:00.302Z,4.97
2023-06-10T15:49:28.355Z,4.40
2023-06-10T15:51:56.549Z,4.10
2023-06-10T15:54:24.623Z,4.53
2023-06-10T15:56:53.950Z,4.25
2023-06-10T15:59:22.896Z,4.47
2023-06-10T16:01:50.951Z,4.38
2023-06-10T16:04:19.997Z,4.15
2023-06-10T16:06:49.464Z,4.30
2023-06-10T16:09:18.580Z,4.57
2023-06-10T16:11:46.540Z,4.53
2023-06-10T16:14:16.411Z,4.60
2023-06-10T16:16:44.452Z,4.65
2023-06-10T16:19:12.998Z,4.45
2023-06-10T16:21:41.717Z,3.97
2023-06-10T16:24:11.137Z,4.28
2023-06-10T16:26:39.244Z,4.70
2023-06-10T16:29:08.235Z,4.40
2023-06-10T16:31:37.710Z,4.50
2023-06-10T16:34:06.157Z,4.35
2023-06-10T16:36:34.159Z,4.80
2023-06-10T16:39:03.159Z,4.60
2023-06-10T16:41:31.139Z,4.75
2023-06-10T16:44:02.757Z,4.45
2023-06-10T16:46:33.155Z,4.40
2023-06-10T16:49:02.590Z,4.60
2023-06-10T16:51:31.547Z,4.20
2023-06-10T16:53:59.536Z,4.30
2023-06-10T16:56:28.545Z,4.55
2023-06-10T16:58:56.562Z,4.38
2023-06-10T17:01:25.057Z,4.22
2023-06-10T17:03:53.634Z,4.30
2023-06-10T17:06:23.485Z,4.50
2023-06-10T17:08:52.312Z,4.32
2023-06-10T17:11:23.066Z,4.10
2023-06-10T17:13:51.432Z,4.00
2023-06-10T17:16:20.454Z,4.30
2023-06-10T17:18:48.491Z,4.28
2023-06-10T17:21:16.583Z,4.65
2023-06-10T17:23:46.056Z,4.40
2023-06-10T17:26:15.243Z,4.40
2023-06-10T17:28:43.257Z,4.35
2023-06-10T17:31:12.239Z,4.63
2023-06-10T17:33:40.277Z,4.63
2023-06-10T17:36:09.339Z,4.10
2023-06-10T17:38:37.329Z,4.72
2023-06-10T17:41:08.841Z,4.45
2023-06-10T17:43:36.806Z,4.80
2023-06-10T17:46:05.831Z,4.80
2023-06-10T17:48:33.818Z,4.22
2023-06-10T17:51:02.351Z,4.55
2023-06-10T17:53:30.382Z,4.70
2023-06-10T17:56:01.906Z,4.47
2023-06-10T17:58:31.693Z,5.25
2023-06-10T18:01:01.009Z,4.97
2023-06-10T18:03:29.133Z,4.63
2023-06-10T18:05:57.918Z,4.82
2023-06-10T18:08:25.938Z,4.93
2023-06-10T18:10:54.579Z,5.47
2023-06-10T18:13:22.583Z,5.27
2023-06-10T18:15:52.524Z,5.18
2023-06-10T18:18:20.587Z,5.00
2023-06-10T18:20:49.103Z,5.00
2023-06-10T18:23:17.229Z,5.35
2023-06-10T18:25:45.320Z,5.25
2023-06-10T18:28:14.245Z,5.28
2023-06-10T18:30:42.306Z,5.20
2023-06-10T18:33:12.663Z,5.20
2023-06-10T18:35:40.783Z,5.20
2023-06-10T18:38:09.494Z,5.15
2023-06-10T18:40:37.468Z,5.40
2023-06-10T18:43:06.083Z,5.30
2023-06-10T18:45:34.109Z,5.10
2023-06-10T18:48:03.227Z,5.25
2023-06-10T18:50:32.741Z,5.38
2023-06-10T18:53:01.173Z,4.90
2023-06-10T18:55:33.196Z,5.32
2023-06-10T18:58:01.972Z,5.20
2023-06-10T19:00:30.017Z,5.27
2023-06-10T19:02:58.652Z,4.60
2023-06-10T19:05:26.806Z,4.50
2023-06-10T19:07:56.704Z,4.53
2023-06-10T19:10:24.745Z,3.95
2023-06-10T19:12:53.804Z,4.20
2023-06-10T19:15:22.149Z,4.07
2023-06-10T19:17:52.426Z,3.55
2023-06-10T19:20:20.577Z,3.92
2023-06-10T19:22:48.552Z,4.22
2023-06-10T19:25:20.144Z,3.88
2023-06-10T19:27:49.238Z,3.35
2023-06-10T19:30:17.240Z,3.30
2023-06-10T19:32:46.350Z,3.70
2023-06-10T19:35:14.597Z,3.90
2023-06-10T19:37:43.535Z,3.47
2023-06-10T19:40:12.436Z,3.55
2023-06-10T19:42:42.742Z,3.85
2023-06-10T19:45:11.371Z,3.83
2023-06-10T19:47:40.614Z,3.72
2023-06-10T19:50:09.138Z,3.60
2023-06-10T19:52:37.758Z,3.53
2023-06-10T19:55:06.866Z,3.92
2023-06-10T19:57:35.022Z,3.50
2023-06-10T20:00:05.431Z,4.10
2023-06-10T20:02:41.526Z,4.00
2023-06-10T20:05:10.310Z,3.38
2023-06-10T20:07:38.581Z,3.95
2023-06-10T20:10:07.055Z,4.15
2023-06-10T20:12:35.179Z,4.22
2023-06-10T20:15:04.999Z,4.05
2023-06-10T20:17:33.110Z,4.18
2023-06-10T20:20:01.706Z,3.80
2023-06-10T20:22:29.835Z,4.20
2023-06-10T20:24:57.925Z,4.43
2023-06-10T20:27:26.054Z,4.82
2023-06-10T20:29:57.160Z,4.70
2023-06-10T20:32:29.054Z,4.47
2023-06-10T20:34:58.318Z,4.43
2023-06-10T20:37:26.809Z,5.57
2023-06-10T20:39:55.610Z,5.30
2023-06-10T20:42:23.648Z,5.17
2023-06-10T20:44:52.406Z,5.15
2023-06-10T20:47:20.624Z,4.38
2023-06-10T20:49:50.065Z,4.70
2023-06-10T20:52:18.178Z,4.93
2023-06-10T20:54:46.311Z,4.75
2023-06-10T20:57:14.813Z,4.90
2023-06-10T20:59:42.879Z,4.88
2023-06-10T21:02:11.086Z,5.50
2023-06-10T21:04:39.269Z,4.85
2023-06-10T21:07:09.409Z,5.05
2023-06-10T21:09:37.991Z,5.03
2023-06-10T21:12:07.280Z,5.40
2023-06-10T21:14:35.404Z,5.18
2023-06-10T21:17:03.397Z,4.80
2023-06-10T21:19:31.443Z,5.47
2023-06-10T21:22:01.909Z,5.25
2023-06-10T21:24:32.760Z,5.15
2023-06-10T21:27:01.284Z,5.28
2023-06-10T21:29:29.779Z,5.28
2023-06-10T21:31:58.537Z,5.57
2023-06-10T21:34:27.515Z,4.95
2023-06-10T21:36:56.104Z,5.50
2023-06-10T21:39:24.091Z,5.07
2023-06-10T21:41:53.505Z,5.35
2023-06-10T21:44:22.148Z,5.28
2023-06-10T21:46:50.241Z,5.15
2023-06-10T21:49:19.445Z,5.22
2023-06-10T21:51:47.504Z,5.07
2023-06-10T21:54:15.525Z,4.95
2023-06-10T21:56:48.264Z,5.40
2023-06-10T21:59:19.330Z,5.97
2023-06-10T22:01:47.529Z,5.13
2023-06-10T22:04:16.295Z,5.57
2023-06-10T22:06:45.092Z,5.67
2023-06-10T22:09:13.099Z,5.32
2023-06-10T22:11:41.128Z,5.72
2023-06-10T22:14:09.154Z,5.25
2023-06-10T22:16:38.629Z,5.32
2023-06-10T22:19:08.550Z,5.07
2023-06-10T22:21:37.586Z,4.70
2023-06-10T22:24:07.471Z,5.03
2023-06-10T22:26:52.225Z,5.55
2023-06-10T22:29:21.846Z,5.55
2023-06-10T22:31:51.872Z,5.65
2023-06-10T22:34:20.050Z,5.63
2023-06-10T22:36:48.557Z,5.18
2023-06-10T22:39:17.267Z,4.88
2023-06-10T22:41:45.809Z,4.88
2023-06-10T22:44:14.308Z,5.20
2023-06-10T22:46:43.213Z,5.45
2023-06-10T22:49:13.187Z,5.28
2023-06-10T22:51:42.571Z,5.55
2023-06-10T22:54:11.046Z,5.33
2023-06-10T22:56:39.052Z,5.30
2023-06-10T22:59:08.315Z,5.30
2023-06-10T23:01:36.356Z,5.45
2023-06-10T23:04:05.172Z,5.38
2023-06-10T23:06:35.496Z,5.22
2023-06-10T23:09:03.871Z,5.40
2023-06-10T23:11:32.817Z,5.30
2023-06-10T23:14:00.784Z,6.10
2023-06-10T23:16:29.350Z,5.82
2023-06-10T23:18:57.687Z,5.60
2023-06-10T23:21:30.236Z,5.72
2023-06-10T23:24:01.961Z,5.25
2023-06-10T23:26:30.103Z,5.47
2023-06-10T23:28:58.989Z,6.00
2023-06-10T23:31:27.288Z,5.70
2023-06-10T23:33:56.271Z,6.00
2023-06-10T23:36:24.848Z,6.35
2023-06-10T23:38:53.750Z,5.83
2023-06-10T23:41:23.657Z,5.80
2023-06-10T23:46:20.220Z,5.80
2023-06-10T23:48:49.185Z,6.72
2023-06-10T23:51:17.235Z,6.43
2023-06-10T23:53:45.669Z,6.07
2023-06-10T23:56:15.197Z,6.18
2023-06-10T23:58:44.530Z,5.80
